Time;durP1;ratioP1;P1;durP2;ratioP2;P2;SDS_P1;SDS_P2;PMS_P1;PMS_P2;Temp;Humidity;BMP_temperature;BMP_pressure;BME280_temperature;BME280_humidity;BME280_pressure;Samples;Min_cycle;Max_cycle;Signal;HPM_P1;HPM_P2
2022/03/25 00:02:44;;;;;;;;;38.20;31.80;;;;;11.51;34.50;99795.41;6290072;27;96555;-69
2022/03/25 00:05:49;;;;;;;;;33.00;30.75;;;;;11.42;34.75;99790.41;6289495;27;96497;-68
2022/03/25 00:08:53;;;;;;;;;39.60;33.00;;;;;11.37;34.60;99791.03;6271145;27;97355;-69
2022/03/25 00:11:56;;;;;;;;;41.60;33.00;;;;;11.25;35.00;99788.09;6271016;27;97946;-68
2022/03/25 00:14:59;;;;;;;;;42.00;34.50;;;;;11.25;34.88;99792.66;6271296;27;97508;-69
2022/03/25 00:18:03;;;;;;;;;41.00;33.60;;;;;11.25;34.74;99787.25;6271103;27;98591;-69
2022/03/25 00:21:08;;;;;;;;;40.00;33.00;;;;;11.22;34.81;99782.28;6285397;27;96998;-68
2022/03/25 00:24:11;;;;;;;;;41.60;34.00;;;;;11.20;34.56;99777.06;6275935;27;97263;-69
2022/03/25 00:27:15;;;;;;;;;40.75;33.00;;;;;11.18;35.04;99778.34;6270128;27;98108;-68
2022/03/25 00:30:18;;;;;;;;;47.00;36.00;;;;;11.11;35.09;99777.47;6270702;27;98421;-69
2022/03/25 00:33:21;;;;;;;;;35.50;32.50;;;;;10.98;34.91;99778.28;6288986;27;96889;-68
2022/03/25 00:36:27;;;;;;;;;37.80;32.80;;;;;10.93;35.11;99763.72;6270666;27;97746;-69
2022/03/25 00:39:30;;;;;;;;;40.00;32.60;;;;;10.85;35.29;99776.34;6289059;27;96981;-68
2022/03/25 00:42:34;;;;;;;;;43.80;35.00;;;;;10.83;35.48;99767.63;6288752;27;97548;-68
2022/03/25 00:45:38;;;;;;;;;38.50;32.00;;;;;10.84;35.35;99769.31;6287885;27;97161;-69
2022/03/25 00:48:42;;;;;;;;;45.60;36.00;;;;;10.83;35.44;99769.50;6270546;27;97837;-68
2022/03/25 00:51:47;;;;;;;;;42.25;35.00;;;;;10.83;35.49;99767.63;6285967;27;96730;-69
2022/03/25 00:54:51;;;;;;;;;45.00;36.40;;;;;10.85;35.36;99765.53;6271285;27;97189;-68
2022/03/25 00:57:58;;;;;;;;;47.50;36.00;;;;;10.92;35.46;99767.44;6282039;27;97410;-68
2022/03/25 01:01:01;;;;;;;;;41.25;34.25;;;;;10.92;35.29;99764.75;6288157;27;96399;-68
2022/03/25 01:04:05;;;;;;;;;42.25;35.00;;;;;10.85;35.32;99765.53;6251804;27;99437;-69
2022/03/25 01:07:10;;;;;;;;;41.50;35.00;;;;;10.74;35.45;99763.47;6285094;27;96842;-68
2022/03/25 01:10:14;;;;;;;;;38.20;33.80;;;;;10.68;35.54;99763.41;6269120;27;97007;-69
2022/03/25 01:13:17;;;;;;;;;48.00;36.00;;;;;10.44;35.74;99743.19;6266332;27;97812;-69
2022/03/25 01:16:20;;;;;;;;;49.00;37.60;;;;;10.53;35.80;99760.84;6287373;27;96776;-69
2022/03/25 01:19:25;;;;;;;;;52.60;42.00;;;;;10.52;36.08;99769.13;6288612;27;97383;-68
2022/03/25 01:22:30;;;;;;;;;50.20;40.00;;;;;10.54;35.98;99767.91;6270564;27;97043;-68
2022/03/25 01:25:33;;;;;;;;;50.00;40.00;;;;;10.56;43.84;99763.16;6253281;27;97067;-69
2022/03/25 01:28:36;;;;;;;;;54.33;41.00;;;;;10.57;49.02;99762.13;6266405;27;97655;-68
2022/03/25 01:31:39;;;;;;;;;53.20;41.00;;;;;10.66;44.15;99752.81;6268073;27;96539;-68
2022/03/25 01:34:43;;;;;;;;;50.80;40.80;;;;;10.79;39.52;99749.38;6244242;27;98445;-68
2022/03/25 01:37:47;;;;;;;;;50.20;39.20;;;;;10.84;37.62;99753.13;6244893;27;96822;-68
2022/03/25 01:40:50;;;;;;;;;50.60;39.00;;;;;10.91;36.78;99738.78;6269872;27;97467;-68
2022/03/25 01:43:56;;;;;;;;;53.00;41.50;;;;;10.89;36.65;99744.41;6287128;27;97436;-68
2022/03/25 01:47:00;;;;;;;;;53.20;43.00;;;;;10.89;36.44;99747.13;6269589;27;98093;-68
2022/03/25 01:50:05;;;;;;;;;50.40;40.00;;;;;10.91;36.15;99745.03;6286997;27;97139;-69
2022/03/25 01:53:14;;;;;;;;;50.20;39.80;;;;;10.86;36.08;99745.63;6287489;27;97000;-69
2022/03/25 01:56:22;;;;;;;;;49.50;39.50;;;;;10.98;35.93;99745.91;6284945;27;96667;-69
2022/03/25 01:59:25;;;;;;;;;49.00;39.00;;;;;11.00;36.13;99745.66;6251751;27;97525;-68
2022/03/25 02:02:29;;;;;;;;;48.40;38.00;;;;;11.05;35.83;99753.97;6286641;27;97478;-69
2022/03/25 02:05:35;;;;;;;;;48.60;38.60;;;;;11.13;35.63;99751.13;6287477;27;96893;-69
2022/03/25 02:08:40;;;;;;;;;49.00;38.00;;;;;11.16;35.53;99751.53;6269693;27;97407;-69
2022/03/25 02:11:44;;;;;;;;;53.50;39.25;;;;;11.21;35.46;99748.22;6269574;27;97142;-69
2022/03/25 02:14:47;;;;;;;;;49.00;37.00;;;;;11.29;35.32;99748.00;6268586;27;97489;-69
2022/03/25 02:17:51;;;;;;;;;45.40;36.20;;;;;11.32;35.11;99754.88;6285901;27;96887;-68
2022/03/25 02:20:54;;;;;;;;;48.60;37.60;;;;;11.32;35.06;99755.72;6269285;27;96974;-69
2022/03/25 02:24:02;;;;;;;;;47.40;36.00;;;;;11.40;34.81;99747.41;6269610;27;96468;-69
2022/03/25 02:27:07;;;;;;;;;48.75;38.00;;;;;11.40;35.12;99757.38;6261698;27;96976;-69
2022/03/25 02:30:12;;;;;;;;;48.60;37.80;;;;;11.29;34.94;99746.16;6278579;27;96952;-68
2022/03/25 02:33:15;;;;;;;;;46.20;37.00;;;;;11.33;35.24;99757.41;6268400;27;96665;-69
2022/03/25 02:36:18;;;;;;;;;48.25;35.25;;;;;11.29;35.17;99754.25;6269346;27;96777;-69
2022/03/25 02:39:23;;;;;;;;;51.00;39.80;;;;;11.27;35.48;99761.75;6286825;27;96417;-68
2022/03/25 02:42:27;;;;;;;;;47.00;37.80;;;;;11.23;35.21;99763.19;6268657;27;96787;-68
2022/03/25 02:45:31;;;;;;;;;47.40;38.00;;;;;11.18;35.48;99765.66;6267823;27;96666;-69
2022/03/25 02:48:34;;;;;;;;;47.00;38.50;;;;;11.20;35.32;99765.44;6266670;27;97174;-68
2022/03/25 02:51:37;;;;;;;;;48.67;37.00;;;;;11.18;35.41;99762.13;6249995;27;98005;-69
2022/03/25 02:54:44;;;;;;;;;47.00;37.60;;;;;11.19;35.41;99761.09;6285343;27;97056;-70
2022/03/25 02:57:47;;;;;;;;;49.00;39.00;;;;;11.13;35.51;99765.44;6279060;27;97565;-68
2022/03/25 03:00:51;;;;;;;;;49.00;38.00;;;;;11.08;35.74;99769.78;6250109;27;99166;-69
2022/03/25 03:03:55;;;;;;;;;49.00;40.00;;;;;11.04;35.58;99772.06;6285688;27;97406;-69
2022/03/25 03:06:58;;;;;;;;;50.00;38.00;;;;;10.98;35.79;99764.78;6267687;27;98595;-69
2022/03/25 03:10:03;;;;;;;;;48.60;38.00;;;;;10.90;35.89;99778.44;6267736;27;97439;-68
2022/03/25 03:13:06;;;;;;;;;50.40;39.00;;;;;10.92;36.26;99775.53;6287309;27;96848;-68
2022/03/25 03:16:10;;;;;;;;;49.00;40.00;;;;;10.96;35.85;99772.22;6268513;27;97464;-69
2022/03/25 03:19:13;;;;;;;;;51.80;40.60;;;;;10.90;35.90;99777.63;6267933;27;97017;-68
2022/03/25 03:22:19;;;;;;;;;50.00;40.00;;;;;10.90;35.88;99778.44;6287247;27;97059;-68
2022/03/25 03:25:25;;;;;;;;;51.00;40.00;;;;;10.86;35.89;99778.00;6286608;27;96842;-69
2022/03/25 03:28:29;;;;;;;;;50.60;40.40;;;;;10.88;35.97;99775.13;6286927;27;97820;-69
2022/03/25 03:31:32;;;;;;;;;51.00;39.00;;;;;10.84;36.10;99779.25;6290250;27;97069;-69
2022/03/25 03:34:36;;;;;;;;;49.75;39.00;;;;;10.77;36.29;99773.81;6290214;27;96870;-69
2022/03/25 03:37:44;;;;;;;;;52.00;40.00;;;;;10.75;36.33;99767.78;6272031;27;97948;-69
2022/03/25 03:40:49;;;;;;;;;50.00;39.00;;;;;10.75;36.32;99773.19;6290668;27;97277;-69
2022/03/25 03:43:52;;;;;;;;;50.00;38.40;;;;;10.76;36.25;99776.72;6271655;27;97975;-69
2022/03/25 03:46:55;;;;;;;;;46.20;37.60;;;;;10.79;36.29;99771.78;6283323;27;96788;-69
2022/03/25 03:49:59;;;;;;;;;49.00;39.00;;;;;10.83;36.29;99773.03;6290654;27;97478;-69
2022/03/25 03:53:02;;;;;;;;;46.40;38.00;;;;;10.80;36.15;99769.88;6290064;27;96619;-69
2022/03/25 03:56:07;;;;;;;;;50.60;39.00;;;;;10.76;36.36;99774.03;6290307;27;96555;-69
2022/03/25 03:59:10;;;;;;;;;47.80;37.80;;;;;10.73;36.33;99764.47;6290254;27;97553;-69
2022/03/25 04:02:14;;;;;;;;;47.40;36.40;;;;;10.73;36.54;99764.47;6289561;27;97406;-68
2022/03/25 04:05:17;;;;;;;;;46.40;38.00;;;;;10.69;36.44;99765.09;6255067;27;99479;-68
2022/03/25 04:08:23;;;;;;;;;48.60;39.00;;;;;10.69;36.38;99765.91;6271806;27;97029;-69
2022/03/25 04:11:28;;;;;;;;;46.00;36.00;;;;;10.64;36.54;99768.38;6289572;27;97504;-69
2022/03/25 04:14:32;;;;;;;;;45.40;36.80;;;;;10.60;36.69;99766.28;6288538;27;97159;-69
2022/03/25 04:17:35;;;;;;;;;45.40;37.20;;;;;10.56;36.86;99770.41;6269060;27;96861;-69
2022/03/25 04:20:38;;;;;;;;;49.80;37.20;;;;;10.53;36.84;99776.19;6269600;27;97345;-68
2022/03/25 04:23:41;;;;;;;;;47.00;37.25;;;;;10.48;36.97;99767.88;6288213;27;97471;-68
2022/03/25 04:26:46;;;;;;;;;44.20;35.80;;;;;10.44;37.04;99772.84;6287866;27;97005;-68
2022/03/25 04:29:49;;;;;;;;;47.00;38.60;;;;;10.36;36.95;99775.72;6268932;27;97043;-67
2022/03/25 04:32:53;;;;;;;;;48.80;37.60;;;;;10.36;37.07;99781.91;6268504;27;98775;-68
2022/03/25 04:35:56;;;;;;;;;47.80;38.00;;;;;10.35;37.10;99777.56;6288251;27;96888;-69
2022/03/25 04:38:59;;;;;;;;;48.33;38.00;;;;;10.30;37.43;99784.59;6252281;27;96642;-68
2022/03/25 04:42:04;;;;;;;;;46.25;36.50;;;;;10.26;37.44;99783.31;6269032;27;96710;-68
2022/03/25 04:45:08;;;;;;;;;45.00;36.40;;;;;10.27;37.23;99782.25;6288321;27;98033;-68
2022/03/25 04:48:11;;;;;;;;;49.60;37.20;;;;;10.22;40.80;99784.72;6287998;27;96432;-68
2022/03/25 04:51:15;;;;;;;;;47.75;36.00;;;;;10.16;39.39;99794.44;6270356;27;99638;-68
2022/03/25 04:54:18;;;;;;;;;46.50;36.50;;;;;10.31;39.65;99789.75;6289440;27;96975;-68
2022/03/25 04:57:23;;;;;;;;;46.50;36.50;;;;;10.29;38.05;99796.41;6270878;27;97337;-70
2022/03/25 05:00:27;;;;;;;;;46.00;37.50;;;;;10.24;38.11;99804.22;6286547;27;97029;-69
2022/03/25 05:03:30;;;;;;;;;42.00;34.60;;;;;10.31;37.68;99800.53;6288594;27;96746;-68
2022/03/25 05:06:34;;;;;;;;;44.60;35.40;;;;;10.34;37.58;99797.47;6253174;27;97139;-69
2022/03/25 05:09:37;;;;;;;;;45.40;36.20;;;;;10.40;37.41;99799.38;6288660;27;96422;-68
2022/03/25 05:12:43;;;;;;;;;45.00;36.00;;;;;10.49;37.33;99807.28;6288844;27;97299;-68
2022/03/25 05:15:46;;;;;;;;;49.67;38.00;;;;;10.53;37.28;99795.91;6288744;27;96556;-68
2022/03/25 05:18:49;;;;;;;;;45.00;36.40;;;;;10.72;37.78;99808.66;6268696;27;96734;-69
2022/03/25 05:21:52;;;;;;;;;47.00;36.20;;;;;10.90;37.50;99813.50;6287023;27;97284;-68
2022/03/25 05:24:56;;;;;;;;;46.00;36.50;;;;;10.90;36.65;99810.00;6288762;27;96808;-67
2022/03/25 05:28:00;;;;;;;;;47.00;38.00;;;;;10.93;36.64;99817.69;6288412;27;96561;-68
2022/03/25 05:31:04;;;;;;;;;54.20;42.20;;;;;11.00;36.67;99824.75;6272704;27;97718;-68
2022/03/25 05:34:07;;;;;;;;;57.00;45.00;;;;;11.21;36.65;99823.81;6288585;27;96596;-69
2022/03/25 05:37:10;;;;;;;;;60.50;46.50;;;;;11.26;36.23;99832.94;6274167;27;98066;-68
2022/03/25 05:40:14;;;;;;;;;61.00;46.00;;;;;11.38;36.01;99835.91;6266020;27;97459;-69
2022/03/25 05:43:19;;;;;;;;;60.50;47.00;;;;;11.46;35.90;99829.47;6268386;27;97423;-68
2022/03/25 05:46:23;;;;;;;;;59.00;45.00;;;;;11.59;35.38;99840.28;6250766;27;99552;-69
2022/03/25 05:49:26;;;;;;;;;57.80;45.80;;;;;11.62;35.20;99837.19;6255875;27;96652;-69
2022/03/25 05:52:29;;;;;;;;;58.00;44.80;;;;;11.72;34.97;99834.94;6282601;27;97759;-71
2022/03/25 05:55:33;;;;;;;;;56.00;44.00;;;;;11.86;34.86;99850.16;6259712;27;100074;-69
2022/03/25 05:58:38;;;;;;;;;56.00;45.00;;;;;11.81;34.67;99830.19;6300243;27;97522;-70
2022/03/25 06:01:43;;;;;;;;;56.00;44.00;;;;;12.00;34.76;99842.88;6286701;27;98050;-69
2022/03/25 06:04:47;;;;;;;;;54.60;40.60;;;;;12.13;34.15;99849.09;6283966;27;97402;-70
2022/03/25 06:07:50;;;;;;;;;55.00;44.00;;;;;12.26;34.02;99844.75;6285693;27;97149;-69
2022/03/25 06:10:55;;;;;;;;;52.00;41.00;;;;;10.35;33.87;99526.06;6280567;27;96922;-70
2022/03/25 06:14:00;;;;;;;;;53.40;41.00;;;;;12.51;33.78;99853.88;6264165;27;97666;-72
2022/03/25 06:17:04;;;;;;;;;47.00;37.25;;;;;12.60;33.35;99858.03;6263908;27;96715;-67
2022/03/25 06:20:08;;;;;;;;;43.80;35.00;;;;;12.67;33.42;99866.09;6282793;27;97196;-67
2022/03/25 06:23:11;;;;;;;;;43.00;35.00;;;;;12.83;32.93;99858.38;6283765;27;97454;-67
2022/03/25 06:26:17;;;;;;;;;44.20;35.60;;;;;12.97;32.75;99862.69;6290840;27;96975;-68
2022/03/25 06:29:21;;;;;;;;;46.00;36.00;;;;;13.22;32.40;99859.31;6285886;27;97047;-69
2022/03/25 06:32:24;;;;;;;;;48.00;38.00;;;;;13.27;32.35;99867.59;6269597;27;98575;-68
2022/03/25 06:35:28;;;;;;;;;50.00;38.60;;;;;13.49;32.10;99862.72;6261666;27;97060;-70
2022/03/25 06:38:31;;;;;;;;;50.50;39.00;;;;;13.69;31.90;99858.00;6261902;27;96773;-68
2022/03/25 06:41:34;;;;;;;;;49.60;40.00;;;;;13.79;31.39;99861.88;6244776;27;97065;-69
2022/03/25 06:44:39;;;;;;;;;52.00;41.00;;;;;13.97;31.42;99855.72;6266863;27;98526;-69
2022/03/25 06:47:43;;;;;;;;;52.25;40.00;;;;;14.08;31.17;99870.44;6269373;27;97041;-69
2022/03/25 06:50:47;;;;;;;;;50.00;40.00;;;;;14.25;31.03;99858.84;6268574;27;98017;-68
2022/03/25 06:53:54;;;;;;;;;52.40;40.00;;;;;14.48;30.80;99862.81;6286558;27;97341;-69
2022/03/25 06:56:58;;;;;;;;;51.40;40.00;;;;;14.61;30.50;99865.44;6293226;27;97159;-69
2022/03/25 07:00:04;;;;;;;;;50.00;38.80;;;;;14.80;30.56;99867.09;6288455;27;97145;-68
2022/03/25 07:03:09;;;;;;;;;51.50;40.25;;;;;15.03;30.35;99864.53;6287565;27;97450;-69
2022/03/25 07:06:14;;;;;;;;;52.67;41.00;;;;;15.36;29.90;99866.00;6310050;27;97259;-69
2022/03/25 07:09:18;;;;;;;;;53.00;42.25;;;;;15.72;29.51;99857.81;6283952;27;96834;-70
2022/03/25 07:12:22;;;;;;;;;52.40;43.00;;;;;16.17;28.97;99866.34;6298211;27;97061;-69
2022/03/25 07:15:26;;;;;;;;;52.00;42.00;;;;;16.55;28.38;99862.31;6273938;27;99951;-70
2022/03/25 07:18:30;;;;;;;;;55.00;44.00;;;;;16.99;27.70;99869.06;6316764;27;97911;-68
2022/03/25 07:21:33;;;;;;;;;56.00;43.00;;;;;17.26;27.15;99871.00;6300999;27;97455;-69
2022/03/25 07:24:36;;;;;;;;;57.50;45.25;;;;;17.59;26.56;99873.06;6287469;27;97516;-68
2022/03/25 07:27:40;;;;;;;;;59.00;44.00;;;;;17.85;26.29;99877.09;6275989;27;97432;-69
2022/03/25 07:30:44;;;;;;;;;60.40;46.00;;;;;18.07;25.75;99869.88;6271285;27;96942;-70
2022/03/25 07:33:48;;;;;;;;;57.60;45.60;;;;;18.38;25.43;99871.19;6265108;27;98537;-69
2022/03/25 07:36:51;;;;;;;;;58.25;45.00;;;;;18.64;25.21;99864.25;6265938;27;96671;-69
2022/03/25 07:39:54;;;;;;;;;57.60;46.00;;;;;18.26;24.58;99763.16;6267999;27;97490;-69
2022/03/25 07:42:58;;;;;;;;;56.00;44.00;;;;;19.42;24.35;99866.69;6290073;27;96681;-70
2022/03/25 07:46:04;;;;;;;;;56.33;45.33;;;;;20.05;23.77;99867.91;6256004;27;99235;-70
2022/03/25 07:49:08;;;;;;;;;55.00;43.00;;;;;20.57;22.76;99867.28;6271921;27;99593;-71
2022/03/25 07:52:11;;;;;;;;;56.67;44.33;;;;;20.98;22.58;99876.59;6273855;27;97988;-70
2022/03/25 07:55:17;;;;;;;;;55.00;43.00;;;;;21.38;21.97;99876.81;6292140;27;96884;-70
2022/03/25 07:58:20;;;;;;;;;55.00;43.40;;;;;21.55;21.23;99857.41;6292450;27;96726;-69
2022/03/25 08:01:25;;;;;;;;;55.75;44.00;;;;;21.89;21.01;99871.50;6273074;27;97473;-69
2022/03/25 08:04:28;;;;;;;;;53.60;42.00;;;;;22.17;21.08;99872.91;6271975;27;96431;-70
2022/03/25 08:07:31;;;;;;;;;50.60;41.00;;;;;22.46;20.39;99874.84;6271145;27;99964;-68
2022/03/25 08:10:39;;;;;;;;;51.00;40.00;;;;;22.83;19.69;99874.53;6286376;27;96567;-69
2022/03/25 08:13:42;;;;;;;;;51.60;39.80;;;;;23.18;19.46;99872.81;6282690;27;97085;-69
2022/03/25 08:16:47;;;;;;;;;51.20;39.00;;;;;23.44;19.22;99879.03;6267164;27;96891;-70
2022/03/25 08:19:50;;;;;;;;;45.20;36.00;;;;;23.71;18.53;99883.06;6286746;27;96603;-69
2022/03/25 08:22:54;;;;;;;;;51.00;40.20;;;;;24.06;18.71;99876.50;6290185;27;96974;-69
2022/03/25 08:29:18;;;;;;;;;42.40;34.00;;;;;24.73;17.64;99880.38;6292826;27;96980;-71
2022/03/25 08:32:23;;;;;;;;;47.80;37.40;;;;;25.19;17.45;99872.47;6270645;27;100100;-70
2022/03/25 08:35:27;;;;;;;;;43.60;34.60;;;;;25.53;17.03;99877.84;6291366;27;96947;-71
2022/03/25 08:38:30;;;;;;;;;44.25;33.25;;;;;25.98;16.66;99876.41;6292022;27;96357;-71
2022/03/25 08:41:34;;;;;;;;;34.00;30.25;;;;;26.33;16.06;99880.59;6279581;27;99014;-70
2022/03/25 08:44:37;;;;;;;;;36.00;32.00;;;;;26.70;15.94;99869.44;6294895;27;97566;-69
2022/03/25 08:47:42;;;;;;;;;38.50;33.00;;;;;27.25;15.84;99865.94;6290291;27;97406;-69
2022/03/25 08:50:45;;;;;;;;;43.50;33.00;;;;;27.57;15.51;99863.88;6288641;27;96776;-69
2022/03/25 08:53:48;;;;;;;;;34.40;30.00;;;;;27.95;14.58;99871.91;6295701;27;97815;-69
2022/03/25 08:56:53;;;;;;;;;28.20;25.00;;;;;28.36;14.71;99864.28;6294022;27;97575;-70
2022/03/25 08:59:56;;;;;;;;;28.75;25.00;;;;;28.85;13.81;99862.47;6289744;27;96668;-69
2022/03/25 09:03:01;;;;;;;;;33.20;29.00;;;;;28.92;13.73;99862.84;6289514;27;97177;-69
2022/03/25 09:06:05;;;;;;;;;32.40;27.00;;;;;29.08;13.66;99863.22;6269715;27;97776;-68
2022/03/25 09:09:10;;;;;;;;;24.80;22.20;;;;;29.21;13.14;99856.75;6288822;27;96702;-69
2022/03/25 09:12:13;;;;;;;;;28.80;24.80;;;;;29.56;13.65;99854.94;6286969;27;97490;-69
2022/03/25 09:15:17;;;;;;;;;25.00;21.40;;;;;29.67;12.65;99825.66;6295198;27;97167;-68
2022/03/25 09:18:22;;;;;;;;;22.00;20.00;;;;;30.12;12.79;99854.00;6279696;27;99058;-68
2022/03/25 09:21:25;;;;;;;;;23.40;19.60;;;;;30.50;12.67;99852.19;6286020;27;97448;-68
2022/03/25 09:24:28;;;;;;;;;19.00;19.00;;;;;30.58;11.89;99852.53;6287391;27;97062;-68
2022/03/25 09:27:32;;;;;;;;;21.20;19.40;;;;;30.67;11.92;99843.00;6289998;27;96605;-69
2022/03/25 09:30:35;;;;;;;;;22.00;19.00;;;;;30.92;12.05;99839.31;6274077;27;97553;-68
2022/03/25 09:33:40;;;;;;;;;23.50;19.00;;;;;30.87;11.58;99822.78;6265302;27;97039;-68
2022/03/25 09:36:43;;;;;;;;;22.60;21.00;;;;;31.04;11.67;99843.38;6262817;27;97491;-68
2022/03/25 09:39:47;;;;;;;;;21.40;19.60;;;;;31.14;11.47;99841.03;6244337;27;97308;-68
2022/03/25 09:42:51;;;;;;;;;22.00;19.60;;;;;31.14;11.26;99837.44;6244598;27;97705;-69
2022/03/25 09:45:55;;;;;;;;;21.00;19.00;;;;;31.05;11.33;99840.25;6264111;27;96526;-68
2022/03/25 09:48:59;;;;;;;;;20.00;19.00;;;;;31.14;11.26;99843.81;6244799;27;96773;-68
2022/03/25 09:52:05;;;;;;;;;22.60;20.00;;;;;31.39;11.31;99840.09;6262249;27;97498;-68
2022/03/25 09:55:10;;;;;;;;;23.00;19.20;;;;;31.55;11.19;99834.75;6265380;27;97482;-69
2022/03/25 09:58:18;;;;;;;;;25.00;22.50;;;;;31.79;11.40;99829.38;6263839;27;96625;-68
2022/03/25 10:01:22;;;;;;;;;21.60;20.00;;;;;31.80;10.55;99833.78;6244450;27;96765;-68
2022/03/25 10:04:43;;;;;;;;;24.40;20.00;;;;;31.94;11.03;99835.47;6263633;27;97953;-68
2022/03/25 10:07:48;;;;;;;;;22.50;22.00;;;;;31.90;11.40;99824.19;6264107;27;96517;-68
2022/03/25 10:10:51;;;;;;;;;29.00;23.00;;;;;32.08;11.27;99838.81;6265121;27;96260;-68
2022/03/25 10:14:18;;;;;;;;;26.40;23.40;;;;;32.14;11.31;99829.91;6262561;27;96917;-68
2022/03/25 10:17:22;;;;;;;;;25.75;24.00;;;;;32.28;10.80;99828.81;6279447;27;97377;-68
2022/03/25 10:20:29;;;;;;;;;28.40;24.00;;;;;32.51;10.89;99822.47;6285629;27;96660;-68
2022/03/25 10:23:32;;;;;;;;;20.80;19.00;;;;;32.64;10.99;99829.78;6253714;27;96854;-68
2022/03/25 10:26:37;;;;;;;;;24.00;21.00;;;;;32.77;10.95;99821.41;6286558;27;96636;-68
2022/03/25 10:29:44;;;;;;;;;21.75;20.00;;;;;32.74;10.25;99822.13;6260815;27;98025;-68
2022/03/25 10:32:47;;;;;;;;;25.00;22.00;;;;;32.63;10.93;99821.72;6272160;27;97768;-68
2022/03/25 10:36:01;;;;;;;;;23.40;20.40;;;;;32.82;11.01;99823.97;6288588;27;96758;-68
2022/03/25 10:39:11;;;;;;;;;28.80;25.40;;;;;33.03;10.61;99816.31;6285717;27;96768;-68
2022/03/25 10:42:14;;;;;;;;;23.20;22.00;;;;;32.50;10.70;99817.25;6290166;27;97515;-69
2022/03/25 10:45:39;;;;;;;;;22.00;20.50;;;;;32.56;11.05;99813.88;6270604;27;99501;-69
2022/03/25 10:48:53;;;;;;;;;21.00;19.00;;;;;32.72;10.77;99810.47;6288383;27;96914;-68
2022/03/25 10:52:00;;;;;;;;;22.50;20.50;;;;;32.62;10.37;99797.72;6270216;27;97518;-68
2022/03/25 10:55:19;;;;;;;;;23.00;21.80;;;;;32.46;11.06;99802.34;6270301;27;98149;-67
2022/03/25 10:58:26;;;;;;;;;20.40;17.00;;;;;32.42;11.29;99801.41;6267280;27;97705;-66
2022/03/25 11:01:30;;;;;;;;;19.60;17.40;;;;;32.52;10.90;99800.97;6287180;27;97575;-67
2022/03/25 11:04:35;;;;;;;;;20.60;19.80;;;;;32.65;10.99;99802.63;6251379;27;97921;-67
2022/03/25 11:07:42;;;;;;;;;25.40;20.00;;;;;32.73;10.24;99798.94;6287534;27;96749;-68
2022/03/25 11:10:46;;;;;;;;;22.40;20.00;;;;;32.82;10.45;99790.47;6285889;27;97125;-68
2022/03/25 11:13:49;;;;;;;;;20.60;19.00;;;;;32.90;10.92;99795.09;6277234;27;97534;-67
2022/03/25 11:16:55;;;;;;;;;16.80;15.40;;;;;32.73;10.94;99790.56;6283657;27;96957;-68
2022/03/25 11:20:00;;;;;;;;;27.60;24.00;;;;;32.71;11.03;99786.47;6268543;27;96830;-66
2022/03/25 11:23:10;;;;;;;;;23.20;22.80;;;;;32.95;10.84;99795.69;6285813;27;96524;-66
2022/03/25 11:26:17;;;;;;;;;12.20;11.20;;;;;33.04;10.86;99790.81;6267161;27;96838;-68
2022/03/25 11:29:24;;;;;;;;;13.75;12.00;;;;;33.10;10.98;99791.41;6280552;27;98055;-67
2022/03/25 11:32:27;;;;;;;;;9.00;8.00;;;;;33.31;10.88;99788.50;6245365;27;99445;-69
2022/03/25 11:35:33;;;;;;;;;8.40;7.40;;;;;33.41;10.59;99774.06;6267137;27;96665;-68
2022/03/25 11:38:38;;;;;;;;;8.00;8.00;;;;;33.40;10.71;99772.41;6254610;27;97180;-67
2022/03/25 11:41:41;;;;;;;;;7.25;6.25;;;;;33.43;10.26;99772.53;6249856;27;97139;-67
2022/03/25 11:44:45;;;;;;;;;7.00;6.25;;;;;33.37;10.83;99773.94;6267777;27;99505;-67
2022/03/25 11:48:29;;;;;;;;;9.00;8.00;;;;;33.17;10.89;99774.91;6286525;27;97440;-67
2022/03/25 11:51:34;;;;;;;;;7.00;7.00;;;;;32.67;11.18;99762.06;6268394;27;97430;-66
2022/03/25 11:54:40;;;;;;;;;7.25;7.00;;;;;32.70;11.38;99765.28;6272906;27;97762;-66
2022/03/25 11:57:46;;;;;;;;;7.00;6.60;;;;;32.85;11.21;99759.84;6289988;27;97594;-67
2022/03/25 12:00:51;;;;;;;;;7.00;5.60;;;;;32.98;11.60;99758.69;6289331;27;97107;-67
2022/03/25 12:03:56;;;;;;;;;6.00;5.00;;;;;33.09;11.25;99745.88;6266975;27;97207;-67
2022/03/25 12:07:02;;;;;;;;;6.40;6.40;;;;;33.15;11.21;99752.03;6247457;27;98289;-67
2022/03/25 12:10:42;;;;;;;;;7.00;6.00;;;;;33.44;10.85;99749.00;6252183;27;97388;-66
2022/03/25 12:14:08;;;;;;;;;8.50;8.00;;;;;33.43;10.81;99744.56;6267479;27;97263;-67
2022/03/25 12:17:23;;;;;;;;;7.00;6.00;;;;;33.25;11.03;99740.41;6271213;27;97350;-66
2022/03/25 12:20:42;;;;;;;;;8.00;8.00;;;;;33.05;11.46;99732.94;6289763;27;96487;-67
2022/03/25 12:23:56;;;;;;;;;8.20;8.00;;;;;32.60;11.26;99727.44;6262472;27;97381;-66
2022/03/25 12:27:03;;;;;;;;;7.00;7.00;;;;;32.11;12.29;99726.53;6262787;27;97099;-66
2022/03/25 12:30:07;;;;;;;;;8.00;7.80;;;;;32.01;12.67;99713.81;6250382;27;96734;-67
2022/03/25 12:33:11;;;;;;;;;8.00;6.60;;;;;31.95;11.72;99694.88;6289979;27;97883;-66
2022/03/25 12:36:15;;;;;;;;;8.40;8.00;;;;;31.84;11.86;99708.41;6264626;27;97547;-67
2022/03/25 12:39:18;;;;;;;;;10.50;9.00;;;;;31.71;11.93;99715.13;6268957;27;96822;-67
2022/03/25 12:42:28;;;;;;;;;10.00;8.00;;;;;31.55;12.63;99697.34;6284661;27;97767;-66
2022/03/25 12:45:34;;;;;;;;;9.00;8.00;;;;;31.55;12.35;99702.91;6286778;27;97924;-68
2022/03/25 12:48:39;;;;;;;;;9.00;8.00;;;;;31.43;13.73;99712.03;6269267;27;97834;-67
2022/03/25 12:51:54;;;;;;;;;8.20;7.00;;;;;31.32;13.38;99699.69;6269639;27;99499;-67
2022/03/25 12:55:07;;;;;;;;;7.50;7.00;;;;;31.24;12.63;99697.75;6287839;27;96694;-67
2022/03/25 12:58:13;;;;;;;;;7.40;7.40;;;;;31.15;12.69;99697.81;6260630;27;97135;-67
2022/03/25 13:01:18;;;;;;;;;9.00;7.00;;;;;30.95;12.64;99691.03;6286874;27;97546;-67
2022/03/25 13:04:28;;;;;;;;;8.80;8.00;;;;;30.71;12.68;99690.84;6269610;27;97656;-67
2022/03/25 13:07:32;;;;;;;;;8.80;7.80;;;;;30.62;13.16;99692.88;6286132;27;97452;-67
2022/03/25 13:10:37;;;;;;;;;8.00;7.60;;;;;30.58;13.47;99688.31;6271155;27;99191;-67
2022/03/25 13:13:41;;;;;;;;;9.00;8.00;;;;;30.51;13.63;99681.28;6288493;27;97421;-68
2022/03/25 13:16:47;;;;;;;;;9.00;7.80;;;;;30.31;13.55;99681.19;6287593;27;97531;-67
2022/03/25 13:19:56;;;;;;;;;9.00;8.00;;;;;30.11;13.42;99677.97;6284716;27;97015;-67
2022/03/25 13:23:04;;;;;;;;;11.00;10.40;;;;;29.96;13.50;99675.72;6285956;27;99803;-67
2022/03/25 13:26:09;;;;;;;;;9.60;9.00;;;;;29.83;13.38;99690.63;6287894;27;97496;-67
2022/03/25 13:29:14;;;;;;;;;10.40;9.00;;;;;29.77;13.72;99682.75;6269444;27;97512;-67
2022/03/25 13:32:36;;;;;;;;;8.00;8.00;;;;;29.77;14.22;99682.75;6287147;27;96890;-66
2022/03/25 13:35:42;;;;;;;;;9.20;8.20;;;;;29.68;13.29;99674.44;6268249;27;97145;-66
2022/03/25 13:38:48;;;;;;;;;9.00;9.00;;;;;29.47;14.03;99668.75;6287220;27;97698;-67
2022/03/25 13:41:51;;;;;;;;;10.00;10.00;;;;;29.24;13.86;99670.03;6266394;27;97409;-66
2022/03/25 13:45:05;;;;;;;;;8.00;7.20;;;;;28.87;14.69;99673.41;6286914;27;96881;-67
2022/03/25 13:48:14;;;;;;;;;11.00;10.00;;;;;28.48;14.77;99666.75;6286102;27;97390;-66
2022/03/25 13:51:19;;;;;;;;;9.40;8.40;;;;;28.11;14.44;99676.38;6262637;27;97823;-67
2022/03/25 13:54:28;;;;;;;;;12.00;10.00;;;;;27.96;14.47;99665.66;6286433;27;96615;-67
2022/03/25 13:57:31;;;;;;;;;9.60;9.40;;;;;27.96;14.75;99660.09;6287006;27;96799;-66
2022/03/25 14:00:39;;;;;;;;;7.60;7.60;;;;;27.84;14.89;99663.47;6285999;27;97977;-66
2022/03/25 14:03:43;;;;;;;;;9.50;9.00;;;;;27.54;15.12;99658.72;6283592;27;96602;-67
2022/03/25 14:06:48;;;;;;;;;9.80;9.00;;;;;27.34;15.72;99650.84;6286484;27;96458;-67
2022/03/25 14:10:03;;;;;;;;;12.80;12.00;;;;;27.42;15.69;99659.22;6286010;27;97641;-66
2022/03/25 14:13:06;;;;;;;;;9.00;7.00;;;;;27.56;15.50;99650.91;6286769;27;96916;-66
2022/03/25 14:16:20;;;;;;;;;10.60;9.60;;;;;27.61;15.39;99639.72;6287103;27;96506;-67
2022/03/25 14:19:25;;;;;;;;;12.40;11.00;;;;;27.43;15.46;99655.34;6267059;27;98393;-67